Airfield :
LOGIN :

Register | Disclaimer

   EN    FR    IT 

 










Legend :    VFR   Marginal VFR   IFR   Intensive IFR   Very Intensive IFR
Visi :
Ceiling :
>= 8 km
>= 3000ft
5 to 8 km
1000 to 3000 ft
1500m to 5 km
500 to 1000 ft
800 to 1500m
200 to 500 ft
< 800m
< 200 ft
Symbols :   Thunderstorms  Fog  Heavy snow  Heavy precipitations  Wind > 20 kt
SIGMETs :     Misc.  Thunderstorms  Icing  Turbulence  Mountain Waves  Volcanic Ashes






- Airport Elevation : 31 ft
- IATA code : INV


EGPE - Inverness

CURRENT METAR :
  • 050250Z 04017KT 4500 RA FEW005 SCT012 BKN018 06/05 Q0996

EXPIRED METARs :
  • 050220Z 04021KT 5000 RA FEW005 SCT012 BKN024 06/05 Q0996
  • 050150Z 04017KT 6000 -RA FEW005 SCT012 BKN024 06/05 Q0996
  • 050120Z AUTO 04017KT 9999 -RA FEW007/// SCT015/// BKN025/// 06/05 Q0995
  • 050050Z AUTO 06017KT 7000 -RA SCT011/// BKN018/// BKN026/// 06/05 Q0995 RERA
  • 050020Z AUTO 05012G25KT 9999 -RA SCT011/// BKN015/// OVC033/// 06/05 Q0995 RESHGR RERA

TAF TAF EGPE
Valid from the 05 at 03:00 until the 05 at 12:00 UTC


050155Z 0503/0512 04015KT 9999 SCT020 BKN030
TEMPO 0503/0512 6000 SHRA BKN012
PROB40
TEMPO 0503/0509 2500 +SHRA BKN009
PROB30
TEMPO 0503/0506 05018G30KT
BECMG 0506/0509 06005KT
ATIS : +44 1667 464 255



MET'MAP, your aeronautical weather chart ! - Copyright ORBIFLY December 2007 - Disclaimer

ORBIFLY MET'MAP TEAM :

Programming & Development : Alexandra Zaïnal
Concept & original design : Baudouin d'Aumeries
Assistance for programming : Marc-Olivier Méhu
Technical & hardware support : Manuel Goepfert

Contact : metmap@orbifly.com




SOURCES & CREDITS :

   NOAA